createdAt,value
2019-01-12T00:00:59.496Z,101782.03
2019-01-12T00:05:05.485Z,101772.11
2019-01-12T00:09:12.474Z,101773.94
2019-01-12T00:13:19.011Z,101779.63
2019-01-12T00:17:24.339Z,101775.25
2019-01-12T00:21:29.597Z,101776.56
2019-01-12T00:25:35.187Z,101780.08
2019-01-12T00:29:46.219Z,101775.41
2019-01-12T00:39:39.293Z,101770.50
2019-01-12T00:44:06.551Z,101767.92
2019-01-12T00:48:13.393Z,101764.52
2019-01-12T00:52:40.621Z,101753.70
2019-01-12T00:56:50.080Z,101758.03
2019-01-12T01:01:00.292Z,101757.66
2019-01-12T01:05:16.534Z,101757.62
2019-01-12T01:14:44.323Z,101756.39
2019-01-12T01:35:36.996Z,101750.25
2019-01-12T01:45:10.529Z,101740.34
2019-01-12T02:06:06.541Z,101748.57
2019-01-12T02:10:49.711Z,101745.53
2019-01-12T02:31:20.982Z,101730.23
2019-01-12T02:35:44.133Z,101731.06
2019-01-12T02:40:17.200Z,101726.27
2019-01-12T02:44:23.305Z,101720.25
2019-01-12T02:48:55.210Z,101725.52
2019-01-12T02:53:19.632Z,101712.80
2019-01-12T02:58:03.110Z,101711.05
2019-01-12T03:07:21.184Z,101701.99
2019-01-12T03:11:30.244Z,101702.44
2019-01-12T03:20:54.122Z,101694.21
2019-01-12T03:25:50.435Z,101684.26
2019-01-12T03:35:05.959Z,101679.35
2019-01-12T03:39:27.407Z,101673.22
2019-01-12T03:48:34.311Z,101660.66
2019-01-12T03:52:47.951Z,101657.25
2019-01-12T04:01:40.983Z,101650.63
2019-01-12T04:05:47.799Z,101644.46
2019-01-12T04:09:54.744Z,101644.50
2019-01-12T04:14:30.494Z,101635.38
2019-01-12T04:19:05.137Z,101638.48
2019-01-12T04:23:30.660Z,101641.44
2019-01-12T04:28:38.369Z,101637.92
2019-01-12T04:32:46.101Z,101628.31
2019-01-12T04:37:22.367Z,101635.68
2019-01-12T04:41:37.034Z,101627.04
2019-01-12T04:45:51.230Z,101620.64
2019-01-12T04:49:58.950Z,101628.42
2019-01-12T04:59:15.585Z,101627.59
2019-01-12T05:03:23.982Z,101613.66
2019-01-12T05:07:34.571Z,101616.23
2019-01-12T05:11:39.965Z,101611.04
2019-01-12T05:20:54.668Z,101618.44
2019-01-12T05:25:27.168Z,101610.09
2019-01-12T05:29:47.627Z,101613.20
2019-01-12T05:34:02.643Z,101602.28
2019-01-12T05:39:21.084Z,101601.54
2019-01-12T05:43:34.927Z,101602.36
2019-01-12T05:47:46.530Z,101603.59
2019-01-12T05:57:10.616Z,101597.65
2019-01-12T06:07:26.286Z,101582.73
2019-01-12T06:37:59.999Z,101575.63
2019-01-12T06:42:06.041Z,101569.53
2019-01-12T06:46:11.239Z,101560.86
2019-01-12T06:50:18.649Z,101555.14
2019-01-12T06:54:23.709Z,101544.75
2019-01-12T06:58:29.863Z,101537.72
2019-01-12T07:02:35.001Z,101538.25
2019-01-12T07:06:40.141Z,101541.84
2019-01-12T07:10:45.328Z,101539.15
2019-01-12T07:14:50.475Z,101535.30
2019-01-12T07:18:55.587Z,101541.43
2019-01-12T07:23:02.753Z,101536.77
2019-01-12T07:27:07.979Z,101521.87
2019-01-12T07:31:14.108Z,101525.24
2019-01-12T07:35:19.314Z,101510.85
2019-01-12T07:39:25.333Z,101498.95
2019-01-12T07:43:30.482Z,101489.42
2019-01-12T07:47:36.483Z,101487.19
2019-01-12T07:51:43.493Z,101479.16
2019-01-12T07:55:48.586Z,101457.24
2019-01-12T07:59:54.430Z,101457.24
2019-01-12T08:04:00.699Z,101471.42
2019-01-12T08:08:05.867Z,101465.38
2019-01-12T08:12:11.009Z,101451.88
2019-01-12T08:16:16.166Z,101457.52
2019-01-12T08:20:21.314Z,101440.96
2019-01-12T08:24:26.361Z,101427.83
2019-01-12T08:28:31.513Z,101443.13
2019-01-12T08:32:36.569Z,101428.28
2019-01-12T08:36:41.590Z,101419.57
2019-01-12T08:40:49.614Z,101435.28
2019-01-12T08:44:54.683Z,101428.23
2019-01-12T08:48:59.802Z,101448.81
2019-01-12T08:53:05.114Z,101460.46
2019-01-12T08:57:10.145Z,101442.05
2019-01-12T09:01:15.258Z,101426.67
2019-01-12T09:05:21.442Z,101425.58
2019-01-12T09:09:28.579Z,101417.09
2019-01-12T09:13:34.725Z,101395.20
2019-01-12T09:17:39.829Z,101390.22
2019-01-12T09:21:45.790Z,101394.02
2019-01-12T09:25:51.896Z,101385.16
2019-01-12T09:29:57.254Z,101384.70
2019-01-12T09:34:02.340Z,101400.28
2019-01-12T09:38:08.450Z,101398.16
2019-01-12T09:42:13.650Z,101369.70
2019-01-12T09:46:19.082Z,101373.33
2019-01-12T09:50:26.310Z,101366.33
2019-01-12T09:54:31.373Z,101354.98
2019-01-12T09:58:37.737Z,101351.25
2019-01-12T10:02:42.862Z,101328.58
2019-01-12T10:06:48.028Z,101341.31
2019-01-12T10:10:53.132Z,101306.06
2019-01-12T10:14:59.191Z,101308.64
2019-01-12T10:19:04.249Z,101309.99
2019-01-12T10:23:10.242Z,101288.03
2019-01-12T10:27:15.318Z,101287.83
2019-01-12T10:31:20.407Z,101273.73
2019-01-12T10:35:25.475Z,101269.99
2019-01-12T10:39:30.529Z,101272.61
2019-01-12T10:43:36.591Z,101284.10
2019-01-12T10:47:43.129Z,101254.22
2019-01-12T10:51:48.254Z,101272.11
2019-01-12T10:55:53.323Z,101261.88
2019-01-12T10:59:58.523Z,101230.14
2019-01-12T11:04:03.631Z,101225.20
2019-01-12T11:08:09.048Z,101227.77
2019-01-12T11:12:14.419Z,101217.49
2019-01-12T11:16:19.494Z,101212.20
2019-01-12T11:20:24.519Z,101223.34
2019-01-12T11:24:29.969Z,101200.22
2019-01-12T11:28:35.116Z,101200.69
2019-01-12T11:32:40.269Z,101189.96
2019-01-12T11:36:45.335Z,101174.55
2019-01-12T11:40:50.486Z,101179.84
2019-01-12T11:44:56.511Z,101170.39
2019-01-12T11:49:01.576Z,101150.30
2019-01-12T11:53:06.642Z,101138.91
2019-01-12T11:57:18.972Z,101137.44
2019-01-12T12:01:19.667Z,101127.94
2019-01-12T12:05:25.230Z,101116.70
2019-01-12T12:09:30.308Z,101103.77
2019-01-12T12:13:36.385Z,101093.00
2019-01-12T12:17:43.971Z,101099.21
2019-01-12T12:21:48.942Z,101087.08
2019-01-12T12:25:54.089Z,101069.99
2019-01-12T12:29:59.217Z,101072.23
2019-01-12T12:34:04.405Z,101053.38
2019-01-12T12:38:09.476Z,101024.92
2019-01-12T12:42:15.629Z,101028.80
2019-01-12T12:46:20.694Z,101025.50
2019-01-12T12:50:25.784Z,101007.50
2019-01-12T12:54:30.839Z,100995.72
2019-01-12T12:58:36.171Z,100998.17
2019-01-12T13:02:42.273Z,100978.08
2019-01-12T13:06:47.469Z,100973.76
2019-01-12T13:10:52.577Z,100964.88
2019-01-12T13:14:58.006Z,100963.06
2019-01-12T13:19:03.191Z,100967.28
2019-01-12T13:23:08.334Z,100940.21
2019-01-12T13:27:13.405Z,100956.22
2019-01-12T13:31:19.030Z,100925.53
2019-01-12T13:35:24.118Z,100936.86
2019-01-12T13:39:32.158Z,100946.02
2019-01-12T13:43:36.134Z,100921.94
2019-01-12T13:47:41.270Z,100909.89
2019-01-12T13:51:46.355Z,100904.48
2019-01-12T13:55:51.465Z,100909.72
2019-01-12T13:59:56.786Z,100906.30
2019-01-12T14:04:01.846Z,100885.02
2019-01-12T14:08:07.742Z,100891.89
2019-01-12T14:12:13.154Z,100887.33
2019-01-12T14:16:18.210Z,100885.97
2019-01-12T14:20:25.607Z,100874.17
2019-01-12T14:24:30.708Z,100873.33
2019-01-12T14:28:35.881Z,100857.03
2019-01-12T14:32:41.033Z,100860.50
2019-01-12T14:36:46.148Z,100837.77
2019-01-12T14:40:51.494Z,100852.47
2019-01-12T14:44:56.686Z,100842.05
2019-01-12T14:49:01.762Z,100846.31
2019-01-12T14:53:06.844Z,100826.02
2019-01-12T14:57:11.999Z,100829.03
2019-01-12T15:01:17.098Z,100820.25
2019-01-12T15:05:24.377Z,100837.04
2019-01-12T15:09:29.956Z,100828.23
2019-01-12T15:13:36.095Z,100834.78
2019-01-12T15:17:41.179Z,100829.09
2019-01-12T15:21:47.292Z,100843.25
2019-01-12T15:25:52.328Z,100839.53
2019-01-12T15:29:57.569Z,100823.73
2019-01-12T15:34:02.801Z,100839.47
2019-01-12T15:42:46.615Z,100829.61
2019-01-12T15:46:51.833Z,100825.16
2019-01-12T15:50:56.897Z,100841.28
2019-01-12T15:55:01.982Z,100834.02
2019-01-12T15:59:07.424Z,100830.02
2019-01-12T16:03:12.574Z,100824.61
2019-01-12T16:07:36.861Z,100809.53
2019-01-12T16:11:42.012Z,100834.77
2019-01-12T16:15:48.246Z,100822.91
2019-01-12T16:19:53.382Z,100811.10
2019-01-12T16:23:58.510Z,100798.38
2019-01-12T16:28:04.688Z,100811.59
2019-01-12T16:32:10.423Z,100799.07
2019-01-12T16:36:15.834Z,100791.30
2019-01-12T16:40:22.483Z,100777.92
2019-01-12T16:44:27.669Z,100791.56
2019-01-12T16:48:33.032Z,100778.19
2019-01-12T16:52:54.238Z,100791.89
2019-01-12T16:56:59.562Z,100779.86
2019-01-12T17:01:04.717Z,100786.21
2019-01-12T17:05:09.937Z,100789.30
2019-01-12T17:09:15.097Z,100776.25
2019-01-12T17:13:20.338Z,100790.45
2019-01-12T17:17:25.429Z,100782.34
2019-01-12T17:28:17.494Z,100759.37
2019-01-12T17:38:05.047Z,100746.61
2019-01-12T17:42:19.206Z,100738.28
2019-01-12T17:46:55.622Z,100738.08
2019-01-12T17:56:33.301Z,100739.25
2019-01-12T18:00:50.732Z,100736.95
2019-01-12T18:05:03.501Z,100737.16
2019-01-12T18:09:08.755Z,100739.13
2019-01-12T18:13:17.808Z,100725.66
2019-01-12T18:17:23.228Z,100730.12
2019-01-12T18:21:30.021Z,100733.73
2019-01-12T18:25:35.095Z,100751.83
2019-01-12T18:29:40.230Z,100739.64
2019-01-12T18:33:45.483Z,100745.67
2019-01-12T18:37:50.633Z,100751.44
2019-01-12T18:41:55.856Z,100760.23
2019-01-12T18:46:00.930Z,100762.69
2019-01-12T18:50:07.618Z,100754.89
2019-01-12T18:54:13.657Z,100760.46
2019-01-12T18:58:19.041Z,100750.44
2019-01-12T19:02:24.394Z,100748.66
2019-01-12T19:06:29.503Z,100757.28
2019-01-12T19:10:34.623Z,100767.83
2019-01-12T19:14:39.795Z,100750.04
2019-01-12T19:18:44.881Z,100747.25
2019-01-12T19:23:02.267Z,100740.62
2019-01-12T19:27:07.501Z,100744.62
2019-01-12T19:31:13.425Z,100755.90
2019-01-12T19:35:18.710Z,100738.11
2019-01-12T19:39:23.775Z,100741.59
2019-01-12T19:43:28.732Z,100731.58
2019-01-12T19:47:33.841Z,100747.51
2019-01-12T19:52:15.842Z,100738.27
2019-01-12T19:56:46.647Z,100729.15
2019-01-12T20:02:20.806Z,100721.95
2019-01-12T20:10:04.679Z,100718.73
2019-01-12T20:12:01.236Z,100728.89
2019-01-12T20:16:14.482Z,100726.86
2019-01-12T20:20:19.776Z,100717.46
2019-01-12T20:24:32.226Z,100732.47
2019-01-12T20:34:22.786Z,100718.71
2019-01-12T20:43:36.324Z,100711.04
2019-01-12T20:48:25.495Z,100714.45
2019-01-12T20:52:49.785Z,100708.55
2019-01-12T20:57:27.799Z,100704.44
2019-01-12T21:03:33.201Z,100711.55
2019-01-12T21:07:28.869Z,100700.97
2019-01-12T21:12:22.911Z,100711.06
2019-01-12T21:22:07.791Z,100707.20
2019-01-12T21:26:12.659Z,100700.50
2019-01-12T21:30:33.764Z,100695.66
2019-01-12T21:34:38.977Z,100693.48
2019-01-12T21:38:44.250Z,100696.25
2019-01-12T21:43:22.187Z,100703.38
2019-01-12T21:52:40.993Z,100697.68
2019-01-12T21:56:46.259Z,100688.62
2019-01-12T22:00:51.354Z,100686.39
2019-01-12T22:04:56.532Z,100688.52
2019-01-12T22:09:01.741Z,100695.24
2019-01-12T22:56:39.531Z,100693.69
2019-01-12T23:01:07.973Z,100680.05
2019-01-12T23:05:13.299Z,100676.18
2019-01-12T23:09:18.730Z,100664.30
2019-01-12T23:13:23.821Z,100672.75
2019-01-12T23:17:28.903Z,100666.52
2019-01-12T23:21:34.065Z,100666.19
2019-01-12T23:25:39.233Z,100660.63
2019-01-12T23:29:44.352Z,100652.83
2019-01-12T23:33:49.535Z,100651.91
2019-01-12T23:37:54.581Z,100647.37
2019-01-12T23:41:59.665Z,100650.98
2019-01-12T23:46:04.947Z,100645.34
2019-01-12T23:50:10.100Z,100633.16
2019-01-12T23:54:15.279Z,100638.39
2019-01-12T23:58:20.398Z,100652.22
